Rumusan perlumbaan (Litar: Melbourne | Musim: 19 | Perlumbaan: 5 | Kumpulan: Elite)

Musim:  Perlumbaan:

Pilih kumpulan lain:

Pos Perkembangan Tayar Kew Nama pengurus Masa perlumbaan Lap Hentian pit Lap terbaik Kelajuan purata Masa lap terbaik
01. Tidak berubah ±0 Michelini   Toygun Senler1 1h27:11.836 58 3 1:27.932 211.66km/h 10.761s
02. Tidak berubah ±0 Michelini   Vladimir Islentiev2 + 3.686 58 3 1:28.160 211.51km/h 9.161s
03. +5 +5 Michelini   Jari Aareskoski3 + 17.465 58 3 1:28.184 210.95km/h 8.743s
04. +1 +1 Michelini   Rui Fonseca + 40.901 58 3 1:28.387 210.02km/h 13.575s
05. +1 +1 Michelini   Aleksej Sutkin + 40.985 58 3 1:28.200 210.01km/h 13.036s
06. +4 +4 Michelini   Joan Centellas + 43.773 58 3 1:28.533 209.90km/h 11.155s
07. Tidak berubah ±0 Michelini   Edvinas Pranculevicius + 51.461 58 3 1:28.719 209.60km/h 11.867s
08. -4 -4 Michelini   Jan Zaluski + 58.194 58 3 1:28.809 209.33km/h 13.471s
09. +7 +7 Michelini   Renato Svaiter + 1:04.716 58 2 1:29.243 209.07km/h 13.324s
10. +10 +10 Michelini   Laila Britāle + 1:06.151 58 3 1:28.764 209.02km/h 11.577s
11. +3 +3 Michelini   Tomasz Kaminski + 1:07.661 58 3 1:28.902 208.96km/h 11.781s
12. +1 +1 Michelini   Nuno Vicente + 1:07.813 58 3 1:28.798 208.95km/h 12.370s
13. +5 +5 Michelini   Denis Grahov + 1:26.432 58 2 1:29.534 208.22km/h 11.889s
14. +9 +9 Michelini   Martynas Molneris + 1:30.449 57 2 1:29.535 208.06km/h 12.449s
15. -6 -6 Michelini   Zdenek Hladik + 1:37.622 57 3 1:29.270 207.78km/h 12.248s
16. -4 -4 Michelini   Marek Marchewka + 1:41.644 57 3 1:29.142 207.62km/h 12.352s
17. -2 -2 Michelini   Vitor Novo + 1:42.307 57 3 1:29.399 207.60km/h 16.882s
18. +1 +1 Dunnolop   Andrius Talandzevicius + 2:19.727 57 4 1:29.506 206.15km/h 12.680s
19. +2 +2 Michelini   Lucas Secundo Abreu + 2:35.615 57 2 1:30.200 205.54km/h 17.803s
20. +6 +6 Dunnolop   Daniele Ambroggi + 2:36.208 57 2 1:30.542 205.52km/h 12.425s
21. +8 +8 Michelini   Rimantas Sagatas + 2:44.878 57 2 1:30.128 205.19km/h 13.644s
22. -5 -5 Michelini   Filipe Miguel + 2:47.517 57 2 1:30.556 205.09km/h 12.900s
23. +1 +1 Badyear   Toni Söyrinki + 3:02.923 56 3 1:30.334 204.51km/h 15.563s
24. +9 +9 Dunnolop   Oli Jais + 3:04.755 56 1 1:31.526 204.44km/h 14.788s
25. +2 +2 Dunnolop   Gabriel Toma + 3:05.934 56 3 1:30.182 204.39km/h 15.816s
26. +2 +2 Dunnolop   Leandro Sereno2 + 3:39.114 56 3 1:30.871 203.15km/h 9.582s
27. -2 -2 Badyear   Lee Ifans + 3:41.190 56 3 1:30.596 203.07km/h 15.239s
28. +4 +4 Dunnolop   Michalis Marolachakis + 4:00.242 56 2 1:31.709 202.37km/h 14.855s
29. +2 +2 Dunnolop   Andy Zavarin + 4:04.518 56 2 1:31.914 202.21km/h 16.609s
30. -19 -19 Michelini   Wagner Souza + 4:19.078 56 3 1:32.160 201.67km/h 13.205s
31. -9 -9 Badyear   Michael Monaco + 5:05.083 55 3 1:32.901 200.00km/h 14.951s
32. -2 -2 Dunnolop   Kostas Farsalinos + 5:43.934 55 3 1:33.077 198.60km/h 16.566s
33. +3 +3 Badyear   Michał Smiatacz + 6:19.811 54 2 1:34.099 197.33km/h 16.528s
34. Tidak berubah ±0 Pipirelli   Mikko Heikkinen + 6:31.849 54 2 1:34.557 196.91km/h 17.763s
35. +3 +3 Pipirelli   Philipp Hartmann + 6:48.633 54 2 1:34.958 196.32km/h 15.459s
36. +1 +1 Michelini   Martin Rosina + 7:26.423 53 3 1:34.604 195.02km/h 13.291s
37. -2 -2 Pipirelli   Craig Templeman + 7:50.640 53 4 1:34.776 194.19km/h 16.186s
38. +1 +1 Pipirelli   Martynas Atkočius + 8:02.483 53 3 1:35.228 193.79km/h 15.795s
Tidak tersenarai
39. -36 -36 Michelini   João Monteiro Kemalangan di permulaan 0 0 -    -